sensor_id;sensor_type;location;lat;lon;timestamp;temperature;humidity
1978;DHT22;989;53.016;8.346;2022-10-01T00:00:58;11.00;8.90
1978;DHT22;989;53.016;8.346;2022-10-01T00:03:25;11.00;8.90
1978;DHT22;989;53.016;8.346;2022-10-01T00:08:25;11.10;7.40
1978;DHT22;989;53.016;8.346;2022-10-01T00:10:52;11.10;9.20
1978;DHT22;989;53.016;8.346;2022-10-01T00:13:18;11.10;9.10
1978;DHT22;989;53.016;8.346;2022-10-01T00:15:45;11.10;9.10
1978;DHT22;989;53.016;8.346;2022-10-01T00:18:11;11.10;8.00
1978;DHT22;989;53.016;8.346;2022-10-01T00:20:40;11.10;8.00
1978;DHT22;989;53.016;8.346;2022-10-01T00:23:12;11.20;8.30
1978;DHT22;989;53.016;8.346;2022-10-01T00:25:39;11.20;8.10
1978;DHT22;989;53.016;8.346;2022-10-01T00:28:05;11.20;8.40
1978;DHT22;989;53.016;8.346;2022-10-01T00:30:32;11.20;7.30
1978;DHT22;989;53.016;8.346;2022-10-01T00:32:58;11.30;7.40
1978;DHT22;989;53.016;8.346;2022-10-01T00:35:23;11.30;7.60
1978;DHT22;989;53.016;8.346;2022-10-01T00:37:49;11.30;8.10
1978;DHT22;989;53.016;8.346;2022-10-01T00:40:18;11.20;8.20
1978;DHT22;989;53.016;8.346;2022-10-01T00:42:45;11.30;8.40
1978;DHT22;989;53.016;8.346;2022-10-01T00:45:14;11.20;9.30
1978;DHT22;989;53.016;8.346;2022-10-01T00:47:47;11.20;9.00
1978;DHT22;989;53.016;8.346;2022-10-01T00:53:02;11.40;7.80
1978;DHT22;989;53.016;8.346;2022-10-01T00:55:35;11.40;7.40
1978;DHT22;989;53.016;8.346;2022-10-01T00:58:03;11.40;6.80
1978;DHT22;989;53.016;8.346;2022-10-01T01:00:30;11.40;5.90
1978;DHT22;989;53.016;8.346;2022-10-01T01:02:56;11.50;5.90
1978;DHT22;989;53.016;8.346;2022-10-01T01:05:22;11.50;5.90
1978;DHT22;989;53.016;8.346;2022-10-01T01:07:50;11.50;5.40
1978;DHT22;989;53.016;8.346;2022-10-01T01:10:27;11.50;5.90
1978;DHT22;989;53.016;8.346;2022-10-01T01:13:18;11.50;6.30
1978;DHT22;989;53.016;8.346;2022-10-01T01:26:49;11.50;7.90
1978;DHT22;989;53.016;8.346;2022-10-01T01:29:26;11.50;9.70
1978;DHT22;989;53.016;8.346;2022-10-01T01:32:01;11.50;10.30
1978;DHT22;989;53.016;8.346;2022-10-01T01:34:33;11.40;9.40
1978;DHT22;989;53.016;8.346;2022-10-01T01:37:04;11.40;11.00
1978;DHT22;989;53.016;8.346;2022-10-01T01:39:37;11.40;12.50
1978;DHT22;989;53.016;8.346;2022-10-01T01:42:09;11.40;15.20
1978;DHT22;989;53.016;8.346;2022-10-01T01:44:40;11.30;15.90
1978;DHT22;989;53.016;8.346;2022-10-01T01:47:09;11.30;19.00
1978;DHT22;989;53.016;8.346;2022-10-01T01:49:36;11.20;21.00
1978;DHT22;989;53.016;8.346;2022-10-01T01:52:09;11.20;25.70
1978;DHT22;989;53.016;8.346;2022-10-01T01:54:38;11.00;29.70
1978;DHT22;989;53.016;8.346;2022-10-01T01:57:05;11.00;34.40
1978;DHT22;989;53.016;8.346;2022-10-01T01:59:32;10.90;36.70
1978;DHT22;989;53.016;8.346;2022-10-01T02:01:58;10.90;41.10
1978;DHT22;989;53.016;8.346;2022-10-01T02:04:33;10.80;45.40
1978;DHT22;989;53.016;8.346;2022-10-01T02:18:38;10.60;68.50
1978;DHT22;989;53.016;8.346;2022-10-01T02:21:39;10.60;74.10
1978;DHT22;989;53.016;8.346;2022-10-01T02:27:31;10.40;88.70
1978;DHT22;989;53.016;8.346;2022-10-01T02:30:07;10.40;92.00
1978;DHT22;989;53.016;8.346;2022-10-01T02:32:36;10.30;93.50
1978;DHT22;989;53.016;8.346;2022-10-01T02:35:10;10.30;96.80
1978;DHT22;989;53.016;8.346;2022-10-01T02:37:39;10.30;97.70
1978;DHT22;989;53.016;8.346;2022-10-01T02:40:08;10.20;99.80
1978;DHT22;989;53.016;8.346;2022-10-01T02:42:39;10.20;99.90
1978;DHT22;989;53.016;8.346;2022-10-01T02:45:07;10.10;99.90
1978;DHT22;989;53.016;8.346;2022-10-01T02:47:38;10.10;99.90
1978;DHT22;989;53.016;8.346;2022-10-01T02:50:08;10.10;99.90
1978;DHT22;989;53.016;8.346;2022-10-01T02:52:41;10.10;99.90
1978;DHT22;989;53.016;8.346;2022-10-01T02:55:19;10.00;99.90
1978;DHT22;989;53.016;8.346;2022-10-01T02:57:50;10.00;99.90
1978;DHT22;989;53.016;8.346;2022-10-01T03:00:17;10.00;99.90
1978;DHT22;989;53.016;8.346;2022-10-01T03:02:47;10.00;99.90
1978;DHT22;989;53.016;8.346;2022-10-01T03:05:14;10.00;99.90
1978;DHT22;989;53.016;8.346;2022-10-01T03:07:40;10.00;99.90
1978;DHT22;989;53.016;8.346;2022-10-01T03:10:08;9.90;99.90
1978;DHT22;989;53.016;8.346;2022-10-01T03:12:34;10.00;99.90
1978;DHT22;989;53.016;8.346;2022-10-01T03:15:00;10.00;99.90
1978;DHT22;989;53.016;8.346;2022-10-01T03:17:27;10.00;99.90
1978;DHT22;989;53.016;8.346;2022-10-01T03:19:53;10.00;99.90
1978;DHT22;989;53.016;8.346;2022-10-01T03:22:21;10.00;99.90
1978;DHT22;989;53.016;8.346;2022-10-01T03:24:51;9.90;99.90
1978;DHT22;989;53.016;8.346;2022-10-01T03:27:18;9.90;99.90
1978;DHT22;989;53.016;8.346;2022-10-01T03:29:44;9.90;99.90
1978;DHT22;989;53.016;8.346;2022-10-01T03:32:11;9.90;99.90
1978;DHT22;989;53.016;8.346;2022-10-01T03:34:37;9.90;99.90
1978;DHT22;989;53.016;8.346;2022-10-01T03:37:03;9.90;99.90
1978;DHT22;989;53.016;8.346;2022-10-01T03:39:29;9.90;99.90
1978;DHT22;989;53.016;8.346;2022-10-01T03:41:55;9.90;99.90
1978;DHT22;989;53.016;8.346;2022-10-01T03:44:21;9.90;99.90
1978;DHT22;989;53.016;8.346;2022-10-01T03:46:47;9.90;99.90
1978;DHT22;989;53.016;8.346;2022-10-01T03:49:13;9.90;99.90
1978;DHT22;989;53.016;8.346;2022-10-01T03:51:38;9.90;99.90
1978;DHT22;989;53.016;8.346;2022-10-01T03:54:05;9.90;99.90
1978;DHT22;989;53.016;8.346;2022-10-01T03:56:33;9.90;99.90
1978;DHT22;989;53.016;8.346;2022-10-01T03:58:59;9.90;99.90
1978;DHT22;989;53.016;8.346;2022-10-01T04:01:26;9.90;99.90
1978;DHT22;989;53.016;8.346;2022-10-01T04:03:52;9.90;99.90
1978;DHT22;989;53.016;8.346;2022-10-01T04:06:17;9.90;99.90
1978;DHT22;989;53.016;8.346;2022-10-01T04:08:43;9.90;99.90
1978;DHT22;989;53.016;8.346;2022-10-01T04:11:09;9.90;99.90
1978;DHT22;989;53.016;8.346;2022-10-01T04:13:35;10.00;99.90
1978;DHT22;989;53.016;8.346;2022-10-01T04:16:02;10.00;99.90
1978;DHT22;989;53.016;8.346;2022-10-01T04:18:32;10.00;99.90
1978;DHT22;989;53.016;8.346;2022-10-01T04:20:58;10.00;99.90
1978;DHT22;989;53.016;8.346;2022-10-01T04:23:25;10.00;99.90
1978;DHT22;989;53.016;8.346;2022-10-01T04:25:51;10.00;99.90
1978;DHT22;989;53.016;8.346;2022-10-01T04:28:17;10.00;99.90
1978;DHT22;989;53.016;8.346;2022-10-01T04:30:44;10.00;99.90
1978;DHT22;989;53.016;8.346;2022-10-01T04:33:14;10.00;99.90
1978;DHT22;989;53.016;8.346;2022-10-01T04:35:41;10.00;99.90
1978;DHT22;989;53.016;8.346;2022-10-01T04:38:12;10.00;99.90
1978;DHT22;989;53.016;8.346;2022-10-01T04:40:40;10.00;99.90
1978;DHT22;989;53.016;8.346;2022-10-01T04:43:06;10.00;99.90
1978;DHT22;989;53.016;8.346;2022-10-01T04:45:36;10.00;99.90
1978;DHT22;989;53.016;8.346;2022-10-01T04:48:02;10.00;99.90
1978;DHT22;989;53.016;8.346;2022-10-01T04:50:28;10.00;99.90
1978;DHT22;989;53.016;8.346;2022-10-01T04:52:54;10.00;99.90
1978;DHT22;989;53.016;8.346;2022-10-01T04:55:20;10.00;99.90
1978;DHT22;989;53.016;8.346;2022-10-01T04:57:46;10.00;99.90
1978;DHT22;989;53.016;8.346;2022-10-01T05:00:15;10.00;99.90
1978;DHT22;989;53.016;8.346;2022-10-01T05:02:44;10.10;99.90
1978;DHT22;989;53.016;8.346;2022-10-01T05:05:11;10.10;99.90
1978;DHT22;989;53.016;8.346;2022-10-01T05:07:38;10.10;99.90
1978;DHT22;989;53.016;8.346;2022-10-01T05:10:06;10.10;99.90
1978;DHT22;989;53.016;8.346;2022-10-01T05:12:32;10.10;99.90
1978;DHT22;989;53.016;8.346;2022-10-01T05:14:59;10.10;99.90
1978;DHT22;989;53.016;8.346;2022-10-01T05:17:25;10.10;99.90
1978;DHT22;989;53.016;8.346;2022-10-01T05:19:51;10.10;99.90
1978;DHT22;989;53.016;8.346;2022-10-01T05:22:16;10.10;99.90
1978;DHT22;989;53.016;8.346;2022-10-01T05:24:43;10.10;99.90
1978;DHT22;989;53.016;8.346;2022-10-01T05:27:09;10.10;99.90
1978;DHT22;989;53.016;8.346;2022-10-01T05:29:37;10.10;99.90
1978;DHT22;989;53.016;8.346;2022-10-01T05:32:03;10.10;99.90
1978;DHT22;989;53.016;8.346;2022-10-01T05:34:29;10.10;99.90
1978;DHT22;989;53.016;8.346;2022-10-01T05:36:54;10.10;99.90
1978;DHT22;989;53.016;8.346;2022-10-01T05:39:20;10.10;99.90
1978;DHT22;989;53.016;8.346;2022-10-01T05:41:45;10.10;99.90
1978;DHT22;989;53.016;8.346;2022-10-01T05:44:11;10.10;99.90
1978;DHT22;989;53.016;8.346;2022-10-01T05:46:37;10.10;99.90
1978;DHT22;989;53.016;8.346;2022-10-01T05:49:03;10.20;99.90
1978;DHT22;989;53.016;8.346;2022-10-01T05:51:28;10.20;99.90
1978;DHT22;989;53.016;8.346;2022-10-01T05:53:55;10.20;99.90
1978;DHT22;989;53.016;8.346;2022-10-01T05:56:24;10.20;99.90
1978;DHT22;989;53.016;8.346;2022-10-01T05:58:50;10.20;99.90
1978;DHT22;989;53.016;8.346;2022-10-01T06:01:16;10.20;99.90
1978;DHT22;989;53.016;8.346;2022-10-01T06:03:41;10.20;99.90
1978;DHT22;989;53.016;8.346;2022-10-01T06:06:08;10.20;99.90
1978;DHT22;989;53.016;8.346;2022-10-01T06:08:34;10.30;99.90
1978;DHT22;989;53.016;8.346;2022-10-01T06:11:02;10.30;99.90
1978;DHT22;989;53.016;8.346;2022-10-01T06:13:29;10.30;99.90
1978;DHT22;989;53.016;8.346;2022-10-01T06:15:54;10.30;99.90
1978;DHT22;989;53.016;8.346;2022-10-01T06:18:20;10.30;99.90
1978;DHT22;989;53.016;8.346;2022-10-01T06:20:46;10.30;99.90
1978;DHT22;989;53.016;8.346;2022-10-01T06:23:12;10.40;99.90
1978;DHT22;989;53.016;8.346;2022-10-01T06:25:40;10.40;99.90
1978;DHT22;989;53.016;8.346;2022-10-01T06:28:08;10.40;99.90
1978;DHT22;989;53.016;8.346;2022-10-01T06:30:36;10.40;99.90
1978;DHT22;989;53.016;8.346;2022-10-01T06:33:14;10.40;99.90
1978;DHT22;989;53.016;8.346;2022-10-01T06:35:45;10.50;99.90
1978;DHT22;989;53.016;8.346;2022-10-01T06:38:12;10.50;99.90
1978;DHT22;989;53.016;8.346;2022-10-01T06:40:39;10.50;99.90
1978;DHT22;989;53.016;8.346;2022-10-01T06:43:05;10.50;99.90
1978;DHT22;989;53.016;8.346;2022-10-01T06:45:37;10.50;99.90
1978;DHT22;989;53.016;8.346;2022-10-01T06:48:04;10.60;99.90
1978;DHT22;989;53.016;8.346;2022-10-01T06:50:31;10.60;99.90
1978;DHT22;989;53.016;8.346;2022-10-01T06:53:00;10.60;99.90
1978;DHT22;989;53.016;8.346;2022-10-01T06:55:29;10.60;99.90
1978;DHT22;989;53.016;8.346;2022-10-01T06:57:57;10.60;99.90
1978;DHT22;989;53.016;8.346;2022-10-01T07:00:26;10.60;99.90
1978;DHT22;989;53.016;8.346;2022-10-01T07:02:53;10.60;99.90
1978;DHT22;989;53.016;8.346;2022-10-01T07:05:20;10.60;99.90
1978;DHT22;989;53.016;8.346;2022-10-01T07:07:47;10.70;99.90
1978;DHT22;989;53.016;8.346;2022-10-01T07:10:14;10.70;99.90
1978;DHT22;989;53.016;8.346;2022-10-01T07:12:41;10.70;99.90
1978;DHT22;989;53.016;8.346;2022-10-01T07:15:07;10.80;99.90
1978;DHT22;989;53.016;8.346;2022-10-01T07:17:40;10.80;99.90
1978;DHT22;989;53.016;8.346;2022-10-01T07:20:09;10.80;99.90
1978;DHT22;989;53.016;8.346;2022-10-01T07:22:35;10.80;99.90
1978;DHT22;989;53.016;8.346;2022-10-01T07:25:01;10.90;99.90
1978;DHT22;989;53.016;8.346;2022-10-01T07:27:27;10.90;99.90
1978;DHT22;989;53.016;8.346;2022-10-01T07:29:53;11.00;99.90
1978;DHT22;989;53.016;8.346;2022-10-01T07:32:18;11.00;99.90
1978;DHT22;989;53.016;8.346;2022-10-01T07:34:45;11.10;99.90
1978;DHT22;989;53.016;8.346;2022-10-01T07:37:10;11.20;99.90
1978;DHT22;989;53.016;8.346;2022-10-01T07:39:36;11.30;99.90
1978;DHT22;989;53.016;8.346;2022-10-01T07:42:02;11.30;99.90
1978;DHT22;989;53.016;8.346;2022-10-01T07:44:28;11.40;99.90
1978;DHT22;989;53.016;8.346;2022-10-01T07:46:55;11.40;99.90
1978;DHT22;989;53.016;8.346;2022-10-01T07:49:21;11.40;99.90
1978;DHT22;989;53.016;8.346;2022-10-01T07:51:50;11.40;99.90
1978;DHT22;989;53.016;8.346;2022-10-01T07:54:21;11.40;99.90
1978;DHT22;989;53.016;8.346;2022-10-01T07:56:48;11.40;99.90
1978;DHT22;989;53.016;8.346;2022-10-01T07:59:17;11.40;99.90
1978;DHT22;989;53.016;8.346;2022-10-01T08:01:46;11.40;99.90
1978;DHT22;989;53.016;8.346;2022-10-01T08:04:14;11.50;99.90
1978;DHT22;989;53.016;8.346;2022-10-01T08:06:58;11.60;99.90
1978;DHT22;989;53.016;8.346;2022-10-01T08:09:24;11.60;99.90
1978;DHT22;989;53.016;8.346;2022-10-01T08:11:50;11.60;99.90
1978;DHT22;989;53.016;8.346;2022-10-01T08:14:15;11.60;99.90
1978;DHT22;989;53.016;8.346;2022-10-01T08:16:42;11.60;99.90
1978;DHT22;989;53.016;8.346;2022-10-01T08:19:08;11.70;99.90
1978;DHT22;989;53.016;8.346;2022-10-01T08:21:34;11.70;99.90
1978;DHT22;989;53.016;8.346;2022-10-01T08:24:01;11.70;99.90
1978;DHT22;989;53.016;8.346;2022-10-01T08:26:28;11.80;99.90
1978;DHT22;989;53.016;8.346;2022-10-01T08:28:53;11.90;99.90
1978;DHT22;989;53.016;8.346;2022-10-01T08:31:19;11.90;99.90
1978;DHT22;989;53.016;8.346;2022-10-01T08:33:44;11.90;99.90
1978;DHT22;989;53.016;8.346;2022-10-01T08:36:10;12.00;99.90
1978;DHT22;989;53.016;8.346;2022-10-01T08:38:36;12.00;99.90
1978;DHT22;989;53.016;8.346;2022-10-01T08:41:26;12.10;99.90
1978;DHT22;989;53.016;8.346;2022-10-01T08:44:01;12.30;99.90
1978;DHT22;989;53.016;8.346;2022-10-01T08:46:32;12.40;99.90
1978;DHT22;989;53.016;8.346;2022-10-01T08:49:22;12.50;99.90
1978;DHT22;989;53.016;8.346;2022-10-01T08:52:06;12.60;99.90
1978;DHT22;989;53.016;8.346;2022-10-01T08:55:05;12.80;99.90
1978;DHT22;989;53.016;8.346;2022-10-01T08:57:40;12.90;99.90
1978;DHT22;989;53.016;8.346;2022-10-01T09:00:14;12.80;99.90
1978;DHT22;989;53.016;8.346;2022-10-01T09:02:42;13.00;99.90
1978;DHT22;989;53.016;8.346;2022-10-01T09:08:38;13.30;99.90
1978;DHT22;989;53.016;8.346;2022-10-01T09:11:31;13.40;99.90
1978;DHT22;989;53.016;8.346;2022-10-01T09:14:19;13.40;99.90
1978;DHT22;989;53.016;8.346;2022-10-01T09:17:18;13.30;99.90
1978;DHT22;989;53.016;8.346;2022-10-01T09:20:02;13.50;99.90
1978;DHT22;989;53.016;8.346;2022-10-01T09:22:48;13.80;99.90
1978;DHT22;989;53.016;8.346;2022-10-01T09:25:24;14.20;99.90
1978;DHT22;989;53.016;8.346;2022-10-01T09:28:57;14.80;99.80
1978;DHT22;989;53.016;8.346;2022-10-01T09:31:05;14.90;95.10
1978;DHT22;989;53.016;8.346;2022-10-01T09:33:47;15.10;89.00
1978;DHT22;989;53.016;8.346;2022-10-01T09:36:22;15.10;81.20
1978;DHT22;989;53.016;8.346;2022-10-01T09:39:56;14.90;80.80
1978;DHT22;989;53.016;8.346;2022-10-01T09:41:59;14.90;88.40
1978;DHT22;989;53.016;8.346;2022-10-01T09:44:30;15.10;87.50
1978;DHT22;989;53.016;8.346;2022-10-01T09:46:56;15.00;78.50
1978;DHT22;989;53.016;8.346;2022-10-01T09:49:32;15.10;79.90
1978;DHT22;989;53.016;8.346;2022-10-01T09:52:23;15.00;80.70
1978;DHT22;989;53.016;8.346;2022-10-01T09:55:41;15.10;75.10
1978;DHT22;989;53.016;8.346;2022-10-01T09:58:10;15.30;69.30
1978;DHT22;989;53.016;8.346;2022-10-01T10:00:38;15.10;71.10
1978;DHT22;989;53.016;8.346;2022-10-01T10:03:05;15.50;73.60
1978;DHT22;989;53.016;8.346;2022-10-01T10:05:45;15.60;56.40
1978;DHT22;989;53.016;8.346;2022-10-01T10:08:32;15.50;64.30
1978;DHT22;989;53.016;8.346;2022-10-01T10:13:36;16.00;51.50
1978;DHT22;989;53.016;8.346;2022-10-01T10:16:29;15.80;54.70
1978;DHT22;989;53.016;8.346;2022-10-01T10:18:56;15.80;58.60
1978;DHT22;989;53.016;8.346;2022-10-01T10:21:27;15.80;61.30
1978;DHT22;989;53.016;8.346;2022-10-01T10:23:57;15.80;52.70
1978;DHT22;989;53.016;8.346;2022-10-01T10:26:28;15.90;56.60
1978;DHT22;989;53.016;8.346;2022-10-01T10:29:00;16.30;52.40
1978;DHT22;989;53.016;8.346;2022-10-01T10:31:45;16.40;44.40
1978;DHT22;989;53.016;8.346;2022-10-01T10:34:15;16.40;57.70
1978;DHT22;989;53.016;8.346;2022-10-01T10:36:43;16.40;46.80
1978;DHT22;989;53.016;8.346;2022-10-01T10:39:26;16.70;45.50
1978;DHT22;989;53.016;8.346;2022-10-01T10:41:54;17.00;32.90
1978;DHT22;989;53.016;8.346;2022-10-01T10:44:22;16.70;26.30
1978;DHT22;989;53.016;8.346;2022-10-01T10:46:51;16.40;37.50
1978;DHT22;989;53.016;8.346;2022-10-01T10:49:24;16.20;31.40
1978;DHT22;989;53.016;8.346;2022-10-01T10:51:55;16.20;41.00
1978;DHT22;989;53.016;8.346;2022-10-01T10:54:31;16.50;41.80
1978;DHT22;989;53.016;8.346;2022-10-01T10:57:03;16.60;31.40
1978;DHT22;989;53.016;8.346;2022-10-01T11:02:30;16.90;26.90
1978;DHT22;989;53.016;8.346;2022-10-01T11:05:02;16.90;22.90
1978;DHT22;989;53.016;8.346;2022-10-01T11:07:36;16.90;20.80
1978;DHT22;989;53.016;8.346;2022-10-01T11:10:05;17.10;25.00
1978;DHT22;989;53.016;8.346;2022-10-01T11:25:33;17.40;16.30
1978;DHT22;989;53.016;8.346;2022-10-01T11:28:45;17.40;20.20
1978;DHT22;989;53.016;8.346;2022-10-01T11:31:51;18.10;8.40
1978;DHT22;989;53.016;8.346;2022-10-01T11:34:39;17.20;14.90
1978;DHT22;989;53.016;8.346;2022-10-01T11:38:11;17.00;13.50
1978;DHT22;989;53.016;8.346;2022-10-01T11:50:19;16.80;18.60
1978;DHT22;989;53.016;8.346;2022-10-01T11:56:09;17.80;5.00
1978;DHT22;989;53.016;8.346;2022-10-01T11:59:15;17.30;8.00
1978;DHT22;989;53.016;8.346;2022-10-01T12:01:54;17.20;14.60
1978;DHT22;989;53.016;8.346;2022-10-01T12:04:36;17.10;14.90
1978;DHT22;989;53.016;8.346;2022-10-01T12:07:22;17.20;8.00
1978;DHT22;989;53.016;8.346;2022-10-01T12:12:29;17.50;1.00
1978;DHT22;989;53.016;8.346;2022-10-01T12:15:29;16.90;1.00
1978;DHT22;989;53.016;8.346;2022-10-01T12:21:02;16.40;1.00
1978;DHT22;989;53.016;8.346;2022-10-01T12:23:41;16.20;1.00
1978;DHT22;989;53.016;8.346;2022-10-01T12:26:30;16.20;1.00
1978;DHT22;989;53.016;8.346;2022-10-01T12:29:18;15.90;1.00
1978;DHT22;989;53.016;8.346;2022-10-01T12:40:50;14.80;2.90
1978;DHT22;989;53.016;8.346;2022-10-01T12:46:37;14.60;5.50
1978;DHT22;989;53.016;8.346;2022-10-01T12:52:50;14.50;11.50
1978;DHT22;989;53.016;8.346;2022-10-01T12:55:59;14.60;10.50
1978;DHT22;989;53.016;8.346;2022-10-01T13:05:07;17.00;1.00
1978;DHT22;989;53.016;8.346;2022-10-01T13:07:51;16.90;1.00
1978;DHT22;989;53.016;8.346;2022-10-01T13:13:32;17.20;1.00
1978;DHT22;989;53.016;8.346;2022-10-01T13:18:58;17.80;1.00
1978;DHT22;989;53.016;8.346;2022-10-01T13:25:07;17.20;1.00
1978;DHT22;989;53.016;8.346;2022-10-01T13:28:07;17.30;1.00
1978;DHT22;989;53.016;8.346;2022-10-01T13:30:57;17.60;1.00
1978;DHT22;989;53.016;8.346;2022-10-01T13:33:31;17.80;1.00
1978;DHT22;989;53.016;8.346;2022-10-01T13:35:59;17.60;1.00
1978;DHT22;989;53.016;8.346;2022-10-01T13:38:41;16.90;1.00
1978;DHT22;989;53.016;8.346;2022-10-01T13:41:23;17.30;1.00
1978;DHT22;989;53.016;8.346;2022-10-01T13:44:32;17.80;1.00
1978;DHT22;989;53.016;8.346;2022-10-01T13:47:03;18.50;1.00
1978;DHT22;989;53.016;8.346;2022-10-01T13:49:32;18.70;1.00
1978;DHT22;989;53.016;8.346;2022-10-01T13:51:59;18.00;1.00
1978;DHT22;989;53.016;8.346;2022-10-01T13:57:32;18.50;1.00
1978;DHT22;989;53.016;8.346;2022-10-01T14:02:40;17.30;1.00
1978;DHT22;989;53.016;8.346;2022-10-01T14:07:43;18.10;1.00
1978;DHT22;989;53.016;8.346;2022-10-01T14:10:13;18.70;1.00
1978;DHT22;989;53.016;8.346;2022-10-01T14:12:42;19.70;1.00
1978;DHT22;989;53.016;8.346;2022-10-01T14:15:36;20.00;1.00
1978;DHT22;989;53.016;8.346;2022-10-01T14:18:29;19.60;1.00
1978;DHT22;989;53.016;8.346;2022-10-01T14:24:24;17.90;1.00
1978;DHT22;989;53.016;8.346;2022-10-01T14:27:09;17.50;1.00
1978;DHT22;989;53.016;8.346;2022-10-01T14:29:59;16.90;1.00
1978;DHT22;989;53.016;8.346;2022-10-01T14:35:56;17.10;1.00
1978;DHT22;989;53.016;8.346;2022-10-01T14:38:27;18.10;1.00
1978;DHT22;989;53.016;8.346;2022-10-01T14:40:54;17.50;1.00
1978;DHT22;989;53.016;8.346;2022-10-01T14:43:24;16.90;1.00
1978;DHT22;989;53.016;8.346;2022-10-01T14:48:31;16.20;1.00
1978;DHT22;989;53.016;8.346;2022-10-01T14:51:00;16.00;10.90
1978;DHT22;989;53.016;8.346;2022-10-01T14:53:29;15.40;13.80
1978;DHT22;989;53.016;8.346;2022-10-01T14:56:00;15.10;23.70
1978;DHT22;989;53.016;8.346;2022-10-01T14:58:34;14.90;23.30
1978;DHT22;989;53.016;8.346;2022-10-01T15:01:22;14.80;28.30
1978;DHT22;989;53.016;8.346;2022-10-01T15:03:49;14.70;30.70
1978;DHT22;989;53.016;8.346;2022-10-01T15:06:20;14.60;28.10
1978;DHT22;989;53.016;8.346;2022-10-01T15:08:54;13.70;80.50
1978;DHT22;989;53.016;8.346;2022-10-01T15:11:28;13.30;99.90
1978;DHT22;989;53.016;8.346;2022-10-01T15:14:01;13.20;99.90
1978;DHT22;989;53.016;8.346;2022-10-01T15:16:29;13.30;99.90
1978;DHT22;989;53.016;8.346;2022-10-01T15:19:06;13.90;99.90
1978;DHT22;989;53.016;8.346;2022-10-01T15:21:34;14.70;99.90
1978;DHT22;989;53.016;8.346;2022-10-01T15:24:03;15.60;63.70
1978;DHT22;989;53.016;8.346;2022-10-01T15:26:30;15.60;43.40
1978;DHT22;989;53.016;8.346;2022-10-01T15:29:09;15.20;59.30
1978;DHT22;989;53.016;8.346;2022-10-01T15:31:37;14.80;56.00
1978;DHT22;989;53.016;8.346;2022-10-01T15:34:05;14.70;59.10
1978;DHT22;989;53.016;8.346;2022-10-01T15:36:33;14.70;58.50
1978;DHT22;989;53.016;8.346;2022-10-01T15:39:02;14.60;63.30
1978;DHT22;989;53.016;8.346;2022-10-01T15:41:30;14.50;62.30
1978;DHT22;989;53.016;8.346;2022-10-01T15:43:58;14.50;60.50
1978;DHT22;989;53.016;8.346;2022-10-01T15:46:28;14.50;51.20
1978;DHT22;989;53.016;8.346;2022-10-01T15:51:51;14.30;35.60
1978;DHT22;989;53.016;8.346;2022-10-01T15:54:42;14.10;39.30
1978;DHT22;989;53.016;8.346;2022-10-01T15:57:14;14.00;39.50
1978;DHT22;989;53.016;8.346;2022-10-01T15:59:44;14.00;37.30
1978;DHT22;989;53.016;8.346;2022-10-01T16:02:18;13.90;38.40
1978;DHT22;989;53.016;8.346;2022-10-01T16:04:46;13.90;34.50
1978;DHT22;989;53.016;8.346;2022-10-01T16:07:21;13.90;33.00
1978;DHT22;989;53.016;8.346;2022-10-01T16:10:00;14.00;31.70
1978;DHT22;989;53.016;8.346;2022-10-01T16:12:37;13.90;27.60
1978;DHT22;989;53.016;8.346;2022-10-01T16:15:05;13.80;32.90
1978;DHT22;989;53.016;8.346;2022-10-01T16:17:53;13.70;33.60
1978;DHT22;989;53.016;8.346;2022-10-01T16:20:42;13.60;36.00
1978;DHT22;989;53.016;8.346;2022-10-01T16:23:31;13.50;38.70
1978;DHT22;989;53.016;8.346;2022-10-01T16:26:02;13.50;39.40
1978;DHT22;989;53.016;8.346;2022-10-01T16:28:31;13.50;39.00
1978;DHT22;989;53.016;8.346;2022-10-01T16:30:58;13.50;35.40
1978;DHT22;989;53.016;8.346;2022-10-01T16:33:24;13.60;36.40
1978;DHT22;989;53.016;8.346;2022-10-01T16:36:07;13.70;36.20
1978;DHT22;989;53.016;8.346;2022-10-01T16:38:33;13.60;35.20
1978;DHT22;989;53.016;8.346;2022-10-01T16:40:59;13.60;35.80
1978;DHT22;989;53.016;8.346;2022-10-01T16:43:26;13.40;41.90
1978;DHT22;989;53.016;8.346;2022-10-01T16:45:52;13.20;45.80
1978;DHT22;989;53.016;8.346;2022-10-01T16:48:19;13.10;47.20
1978;DHT22;989;53.016;8.346;2022-10-01T16:50:48;13.20;45.70
1978;DHT22;989;53.016;8.346;2022-10-01T16:53:17;13.20;47.00
1978;DHT22;989;53.016;8.346;2022-10-01T16:55:43;13.10;48.70
1978;DHT22;989;53.016;8.346;2022-10-01T16:58:10;13.00;50.90
1978;DHT22;989;53.016;8.346;2022-10-01T17:00:37;13.10;54.20
1978;DHT22;989;53.016;8.346;2022-10-01T17:03:08;13.10;54.50
1978;DHT22;989;53.016;8.346;2022-10-01T17:05:38;13.00;56.70
1978;DHT22;989;53.016;8.346;2022-10-01T17:08:04;12.90;59.70
1978;DHT22;989;53.016;8.346;2022-10-01T17:10:46;12.80;61.60
1978;DHT22;989;53.016;8.346;2022-10-01T17:13:15;12.70;64.80
1978;DHT22;989;53.016;8.346;2022-10-01T17:15:43;12.60;64.40
1978;DHT22;989;53.016;8.346;2022-10-01T17:18:11;12.60;65.00
1978;DHT22;989;53.016;8.346;2022-10-01T17:20:38;12.60;66.20
1978;DHT22;989;53.016;8.346;2022-10-01T17:23:04;12.60;67.00
1978;DHT22;989;53.016;8.346;2022-10-01T17:25:32;12.50;67.30
1978;DHT22;989;53.016;8.346;2022-10-01T17:28:01;12.40;67.70
1978;DHT22;989;53.016;8.346;2022-10-01T17:30:29;12.40;67.20
1978;DHT22;989;53.016;8.346;2022-10-01T17:32:56;12.40;68.60
1978;DHT22;989;53.016;8.346;2022-10-01T17:35:24;12.40;70.60
1978;DHT22;989;53.016;8.346;2022-10-01T17:37:50;12.40;70.70
1978;DHT22;989;53.016;8.346;2022-10-01T17:40:16;12.30;71.70
1978;DHT22;989;53.016;8.346;2022-10-01T17:42:42;12.30;72.70
1978;DHT22;989;53.016;8.346;2022-10-01T17:45:10;12.20;74.80
1978;DHT22;989;53.016;8.346;2022-10-01T17:47:45;12.20;77.10
1978;DHT22;989;53.016;8.346;2022-10-01T17:50:12;12.10;81.70
1978;DHT22;989;53.016;8.346;2022-10-01T17:52:39;12.10;83.40
1978;DHT22;989;53.016;8.346;2022-10-01T17:55:05;12.00;87.30
1978;DHT22;989;53.016;8.346;2022-10-01T17:57:32;12.00;88.60
1978;DHT22;989;53.016;8.346;2022-10-01T17:59:58;11.90;90.30
1978;DHT22;989;53.016;8.346;2022-10-01T18:02:23;11.70;92.90
1978;DHT22;989;53.016;8.346;2022-10-01T18:04:49;11.80;93.90
1978;DHT22;989;53.016;8.346;2022-10-01T18:07:15;11.80;95.50
1978;DHT22;989;53.016;8.346;2022-10-01T18:09:41;11.70;95.90
1978;DHT22;989;53.016;8.346;2022-10-01T18:12:11;11.60;96.60
1978;DHT22;989;53.016;8.346;2022-10-01T18:14:37;11.70;98.20
1978;DHT22;989;53.016;8.346;2022-10-01T18:17:03;11.80;98.00
1978;DHT22;989;53.016;8.346;2022-10-01T18:19:29;11.80;97.70
1978;DHT22;989;53.016;8.346;2022-10-01T18:21:56;11.80;97.40
1978;DHT22;989;53.016;8.346;2022-10-01T18:24:23;11.70;97.70
1978;DHT22;989;53.016;8.346;2022-10-01T18:26:50;11.60;98.00
1978;DHT22;989;53.016;8.346;2022-10-01T18:29:26;11.50;99.90
1978;DHT22;989;53.016;8.346;2022-10-01T18:32:10;11.50;99.90
1978;DHT22;989;53.016;8.346;2022-10-01T18:34:59;11.40;99.90
1978;DHT22;989;53.016;8.346;2022-10-01T18:37:38;11.30;99.90
1978;DHT22;989;53.016;8.346;2022-10-01T18:40:28;11.10;99.90
1978;DHT22;989;53.016;8.346;2022-10-01T18:43:13;11.10;99.90
1978;DHT22;989;53.016;8.346;2022-10-01T18:52:31;11.40;99.90
1978;DHT22;989;53.016;8.346;2022-10-01T19:04:15;11.50;99.90
1978;DHT22;989;53.016;8.346;2022-10-01T19:06:48;11.50;99.90
1978;DHT22;989;53.016;8.346;2022-10-01T19:12:39;11.30;99.90
1978;DHT22;989;53.016;8.346;2022-10-01T19:26:29;11.40;99.90